Gardner, MA (01440)

8:13 AM EDT on August 31, 2015 (GMT -0400)
City of Gardner Greenwood st | | Change Station
CLOSE
Current Station
Personal Weather Station
Location: Gardner, MA
Elevation: 1089 ft
Nearby Weather Stations

Elev 1089 ft 42.57 °N, 72.00 °W | Updated 1 second ago

Clear
Clear
67.1 °F
Feels Like 67.1 °F
N
0.0
Wind Variable Wind from East
Gusts 0.0 mph

Today
High -- | Low -- °F
--% Chance of Precip.
Yesterday
High -- | Low -- °F
Precip. -- in
6:11 AM 7:24 PM
Waning Gibbous, 95% visible
Pressure 29.99 in
Visibility 8.0 miles
Clouds Clear
Dew Point 65 °F
Humidity 92%
Rainfall in
Snow Depth Not available.
UV 0.0 out of 12
Pollen 10.60 out of 12
Air Quality Not available.
Flu Activity Not available.
METAR KFIT 311152Z AUTO VRB04KT 8SM CLR 23/18 A3000 RMK AO2 SLP156 T02280178 10228 20183 50002
Pressure 29.99 in
Visibility 8.0 miles
Clouds Clear
Dew Point 65 °F
Humidity 92%
Rainfall in
Snow Depth Not available.
UV 0.0 out of 12
Pollen 10.60 out of 12
Air Quality Not available.
Flu Activity Not available.
METAR KFIT 311152Z AUTO VRB04KT 8SM CLR 23/18 A3000 RMK AO2 SLP156 T02280178 10228 20183 50002

10-Day Weather Forecast

×

Almanac

Astronomy

Aug. 31, 2015 Rise Set
Actual Time
Civil Twilight
Nautical Twilight
Astronomical Twilight
Moon
Length of Visible Light
Length of Day
Tomorrow will be .
, % of the Moon is Illuminated

Today's Extremes

State Highs State Lows

Community

WunderPhotos

Upload Photos

1,851,222 photos uploaded!

WunderBlogs® & News

Nearby

Air Quality

  Air Quality AQ Index Pollutant
Not available.

Snow Depth

Station Depth Elevation

Earthquake Activity

City Distance Mag. Time & Date
Minimum magnitude displayed is 2.5.

Coastal Water Temperatures

Place Temperature

Stations

Nearby Weather Stations

Station Location Temp. Windchill Dew Point Humidity Wind Precip. Elev Updated Type